Time;durP1;ratioP1;P1;durP2;ratioP2;P2;SDS_P1;SDS_P2;PMS_P1;PMS_P2;Temp;Humidity;BMP_temperature;BMP_pressure;BME280_temperature;BME280_humidity;BME280_pressure;Samples;Min_cycle;Max_cycle;Signal;HPM_P1;HPM_P2
2021/08/26 00:06:42;;;;;;;8.20;6.22;;;20.20;99.90;;;;;;5006583;28;20419;-72
2021/08/26 00:09:09;;;;;;;9.70;7.85;;;20.30;99.90;;;;;;5007794;28;20030;-72
2021/08/26 00:11:36;;;;;;;10.68;6.05;;;20.20;99.90;;;;;;5002915;28;20029;-72
2021/08/26 00:14:02;;;;;;;7.10;5.43;;;20.30;99.90;;;;;;5006504;28;20037;-72
2021/08/26 00:16:28;;;;;;;10.50;6.90;;;20.20;99.90;;;;;;5001208;28;20559;-72
2021/08/26 00:18:54;;;;;;;7.45;6.63;;;20.20;99.90;;;;;;5001313;28;20140;-72
2021/08/26 00:21:20;;;;;;;10.68;7.18;;;20.20;99.90;;;;;;5008932;28;20068;-73
2021/08/26 00:23:46;;;;;;;7.72;6.30;;;20.00;99.90;;;;;;5007028;28;20101;-72
2021/08/26 00:26:12;;;;;;;7.68;6.10;;;19.90;99.90;;;;;;5005419;28;20030;-73
2021/08/26 00:28:37;;;;;;;7.63;6.68;;;19.90;99.90;;;;;;5007986;28;20037;-73
2021/08/26 00:31:04;;;;;;;8.88;6.97;;;19.80;99.90;;;;;;5008945;28;20030;-73
2021/08/26 00:33:30;;;;;;;7.70;6.63;;;19.70;99.90;;;;;;5009497;28;20053;-73
2021/08/26 00:35:57;;;;;;;8.45;7.13;;;19.80;99.90;;;;;;5007143;28;20123;-71
2021/08/26 00:38:24;;;;;;;10.98;6.32;;;19.80;99.90;;;;;;4991429;28;20061;-72
2021/08/26 00:40:51;;;;;;;8.70;6.45;;;19.70;99.90;;;;;;5007030;28;20466;-72
2021/08/26 00:43:17;;;;;;;12.48;7.70;;;19.60;99.90;;;;;;5008951;28;20030;-73
2021/08/26 00:45:45;;;;;;;7.15;5.60;;;19.60;99.90;;;;;;5007771;28;20110;-72
2021/08/26 00:48:11;;;;;;;8.38;6.55;;;19.60;99.90;;;;;;5009525;28;20030;-73
2021/08/26 00:50:37;;;;;;;11.10;6.50;;;19.60;99.90;;;;;;5004470;28;20100;-73
2021/08/26 00:53:03;;;;;;;8.20;6.90;;;19.50;99.90;;;;;;5008764;28;20084;-73
2021/08/26 00:55:29;;;;;;;9.00;7.07;;;19.40;99.90;;;;;;5006079;28;20504;-73
2021/08/26 00:57:55;;;;;;;10.32;6.18;;;19.50;99.90;;;;;;5007729;28;20033;-73
2021/08/26 01:00:21;;;;;;;8.95;7.05;;;19.50;99.90;;;;;;5006824;28;20022;-72
2021/08/26 01:03:01;;;;;;;8.43;6.75;;;19.50;99.90;;;;;;5002838;28;20109;-73
2021/08/26 01:05:48;;;;;;;8.48;6.80;;;19.40;99.90;;;;;;5010205;28;20026;-72
2021/08/26 01:08:19;;;;;;;7.50;6.10;;;19.40;99.90;;;;;;5009337;28;20053;-71
2021/08/26 01:10:50;;;;;;;8.43;7.22;;;19.30;99.90;;;;;;5009083;28;20384;-71
2021/08/26 01:13:18;;;;;;;7.18;6.43;;;19.20;99.90;;;;;;5009382;28;20585;-72
2021/08/26 01:16:02;;;;;;;7.47;6.30;;;19.20;99.90;;;;;;5010832;28;20034;-73
2021/08/26 01:18:28;;;;;;;7.85;6.65;;;19.20;99.90;;;;;;5009120;28;20026;-70
2021/08/26 01:20:53;;;;;;;7.60;6.50;;;19.20;99.90;;;;;;5011793;28;20040;-70
2021/08/26 01:23:19;;;;;;;8.27;6.38;;;19.20;99.90;;;;;;5008607;28;20579;-70
2021/08/26 01:25:46;;;;;;;7.80;7.00;;;19.10;99.90;;;;;;5007141;28;20030;-71
2021/08/26 01:28:12;;;;;;;9.00;6.90;;;19.10;99.90;;;;;;5010428;28;20109;-72
2021/08/26 01:30:42;;;;;;;7.95;6.18;;;19.10;99.90;;;;;;5011065;28;20116;-71
2021/08/26 01:33:09;;;;;;;7.80;6.32;;;19.10;99.90;;;;;;5012114;28;20034;-72
2021/08/26 01:35:35;;;;;;;9.90;6.30;;;19.20;99.90;;;;;;5010917;28;20042;-71
2021/08/26 01:38:00;;;;;;;8.57;6.35;;;19.10;99.90;;;;;;5008969;28;20109;-71
2021/08/26 01:40:39;;;;;;;8.55;7.10;;;19.20;99.90;;;;;;5006804;28;20598;-72
2021/08/26 01:43:10;;;;;;;6.85;6.18;;;19.10;99.90;;;;;;5008312;28;20033;-72
2021/08/26 01:45:38;;;;;;;9.52;7.18;;;19.10;99.90;;;;;;5011658;28;20542;-71
2021/08/26 01:48:04;;;;;;;9.18;6.93;;;19.10;99.90;;;;;;5010294;28;20030;-71
2021/08/26 01:50:30;;;;;;;6.80;6.10;;;19.00;99.90;;;;;;5011953;28;20037;-71
2021/08/26 01:52:55;;;;;;;7.35;6.00;;;19.00;99.90;;;;;;5011983;28;20388;-72
2021/08/26 01:55:22;;;;;;;7.78;6.47;;;19.00;99.90;;;;;;5010632;28;20101;-72
2021/08/26 01:57:47;;;;;;;7.75;6.55;;;18.90;99.90;;;;;;5010792;28;20105;-72
2021/08/26 02:00:14;;;;;;;8.43;6.80;;;18.90;99.90;;;;;;5007773;28;20534;-72
2021/08/26 02:02:40;;;;;;;9.80;6.72;;;18.90;99.90;;;;;;5011441;28;20105;-72
2021/08/26 02:05:05;;;;;;;10.25;6.65;;;18.90;99.90;;;;;;5008100;28;20037;-71
2021/08/26 02:07:31;;;;;;;6.97;6.15;;;18.90;99.90;;;;;;5009289;28;20033;-72
2021/08/26 02:09:57;;;;;;;10.52;6.40;;;18.90;99.90;;;;;;5008852;28;20125;-73
2021/08/26 02:12:23;;;;;;;7.53;6.72;;;18.90;99.90;;;;;;5010322;28;20048;-72
2021/08/26 02:14:49;;;;;;;9.60;6.63;;;19.00;99.90;;;;;;5003903;28;20041;-72
2021/08/26 02:17:14;;;;;;;7.18;5.95;;;19.00;99.90;;;;;;5007334;28;20396;-72
2021/08/26 02:19:41;;;;;;;8.23;6.20;;;18.90;99.90;;;;;;5011896;28;20165;-72
2021/08/26 02:22:07;;;;;;;8.00;6.40;;;18.90;99.90;;;;;;5011521;28;20108;-72
2021/08/26 02:24:33;;;;;;;14.10;6.55;;;18.80;99.90;;;;;;5012498;28;20018;-72
2021/08/26 02:27:00;;;;;;;9.40;5.93;;;18.80;99.90;;;;;;5014023;28;20018;-73
2021/08/26 02:29:26;;;;;;;9.88;7.32;;;18.80;99.90;;;;;;5012837;28;20388;-73
2021/08/26 02:31:52;;;;;;;11.23;6.47;;;18.80;99.90;;;;;;5013374;28;20117;-73
2021/08/26 02:34:17;;;;;;;10.70;6.10;;;18.70;99.90;;;;;;5018100;28;20033;-73
2021/08/26 02:36:43;;;;;;;9.00;6.57;;;18.80;99.90;;;;;;5011322;28;20489;-74
2021/08/26 02:39:09;;;;;;;7.88;6.72;;;18.80;99.90;;;;;;5008914;28;20119;-73
2021/08/26 02:41:37;;;;;;;8.82;5.78;;;18.90;99.90;;;;;;5002633;28;20022;-73
2021/08/26 02:44:03;;;;;;;8.10;7.00;;;18.90;99.90;;;;;;5009555;28;20061;-71
2021/08/26 02:46:29;;;;;;;8.98;7.00;;;18.90;99.90;;;;;;5003886;28;20084;-71
2021/08/26 02:48:55;;;;;;;8.20;6.25;;;18.90;99.90;;;;;;5010485;28;20041;-72
2021/08/26 02:51:21;;;;;;;9.43;6.97;;;19.00;99.90;;;;;;5009786;28;20104;-72
2021/08/26 02:53:46;;;;;;;9.30;6.30;;;18.90;99.90;;;;;;5010775;28;20033;-72
2021/08/26 02:56:12;;;;;;;7.88;6.03;;;19.00;99.90;;;;;;5009084;28;20033;-72
2021/08/26 02:58:38;;;;;;;8.68;6.80;;;18.90;99.90;;;;;;5009987;28;20484;-73
2021/08/26 03:01:04;;;;;;;6.85;5.82;;;18.80;99.90;;;;;;5005821;28;20030;-73
2021/08/26 03:03:29;;;;;;;9.07;7.25;;;18.80;99.90;;;;;;5009500;28;20726;-73
2021/08/26 03:05:55;;;;;;;9.70;6.82;;;18.80;99.90;;;;;;5011224;28;20492;-73
2021/08/26 03:08:21;;;;;;;11.55;6.28;;;18.80;99.90;;;;;;5007529;28;20037;-73
2021/08/26 03:10:47;;;;;;;10.50;6.18;;;18.80;99.90;;;;;;5009194;28;20503;-72
2021/08/26 03:13:12;;;;;;;8.85;6.82;;;18.80;99.90;;;;;;5009319;28;20125;-72
2021/08/26 03:15:38;;;;;;;10.35;7.07;;;18.70;99.90;;;;;;5004683;28;20030;-72
2021/08/26 03:18:04;;;;;;;8.85;6.95;;;18.70;99.90;;;;;;5006351;28;20022;-72
2021/08/26 03:20:30;;;;;;;9.88;7.57;;;18.80;99.90;;;;;;5008592;28;20057;-73
2021/08/26 03:22:56;;;;;;;7.95;6.57;;;18.80;99.90;;;;;;5008968;28;20030;-73
2021/08/26 03:25:22;;;;;;;10.88;6.63;;;18.80;99.90;;;;;;5009212;28;20499;-73
2021/08/26 03:27:47;;;;;;;7.57;6.25;;;18.80;99.90;;;;;;5007018;28;20030;-72
2021/08/26 03:30:13;;;;;;;11.35;6.93;;;18.70;99.90;;;;;;5004368;28;20034;-72
2021/08/26 03:32:39;;;;;;;8.18;6.85;;;18.60;99.90;;;;;;5002996;28;20373;-73
2021/08/26 03:35:06;;;;;;;7.65;6.63;;;18.40;99.90;;;;;;5008276;28;20028;-72
2021/08/26 03:37:31;;;;;;;10.00;6.47;;;18.40;99.90;;;;;;5009939;28;20462;-72
2021/08/26 03:39:57;;;;;;;8.13;6.63;;;18.50;99.90;;;;;;5001221;28;20114;-72
2021/08/26 03:42:23;;;;;;;8.88;7.35;;;18.50;99.90;;;;;;5007602;28;20376;-72
2021/08/26 03:44:49;;;;;;;7.53;6.68;;;18.60;99.90;;;;;;5010258;28;20021;-72
2021/08/26 03:47:15;;;;;;;10.00;7.50;;;18.60;99.90;;;;;;5008705;28;20056;-72
2021/08/26 03:49:41;;;;;;;11.25;6.95;;;18.40;99.90;;;;;;5008940;28;20030;-73
2021/08/26 03:52:07;;;;;;;13.23;8.02;;;18.40;99.90;;;;;;5007646;28;20463;-72
2021/08/26 03:54:32;;;;;;;10.00;6.68;;;18.20;99.90;;;;;;5009688;28;20234;-73
2021/08/26 03:56:58;;;;;;;9.38;7.00;;;18.20;99.90;;;;;;5008995;28;20041;-71
2021/08/26 03:59:24;;;;;;;9.50;7.68;;;18.10;99.90;;;;;;5008000;28;20112;-72
2021/08/26 04:01:50;;;;;;;9.80;7.45;;;18.00;99.90;;;;;;5008972;28;20018;-72
2021/08/26 04:04:15;;;;;;;12.60;6.75;;;18.00;99.90;;;;;;5007836;28;20380;-72
2021/08/26 04:06:41;;;;;;;8.65;7.75;;;17.90;99.90;;;;;;5008755;28;20098;-72
2021/08/26 04:09:07;;;;;;;8.80;7.72;;;17.90;99.90;;;;;;5008023;28;20026;-72
2021/08/26 04:11:33;;;;;;;7.93;7.03;;;17.80;99.90;;;;;;5008644;28;20072;-72
2021/08/26 04:13:59;;;;;;;8.50;6.68;;;17.70;99.90;;;;;;5007578;28;20091;-73
2021/08/26 04:16:24;;;;;;;9.40;7.18;;;17.80;99.90;;;;;;5008699;28;20108;-72
2021/08/26 04:18:50;;;;;;;12.88;8.20;;;17.80;99.90;;;;;;5005545;28;20067;-71
2021/08/26 04:21:16;;;;;;;7.30;6.40;;;17.90;99.90;;;;;;5010142;28;20037;-73
2021/08/26 04:23:42;;;;;;;9.40;6.50;;;18.00;99.90;;;;;;5008614;28;20029;-72
2021/08/26 04:26:08;;;;;;;10.57;7.70;;;18.10;99.90;;;;;;5007158;28;20023;-72
2021/08/26 04:28:33;;;;;;;13.73;7.18;;;18.10;99.90;;;;;;5008498;28;20030;-72
2021/08/26 04:30:59;;;;;;;11.63;7.40;;;18.20;99.90;;;;;;5008110;28;20038;-72
2021/08/26 04:33:25;;;;;;;8.38;6.57;;;18.20;99.90;;;;;;5008049;28;20370;-72
2021/08/26 04:35:50;;;;;;;10.10;7.45;;;18.30;99.90;;;;;;5002357;28;20366;-72
2021/08/26 04:38:16;;;;;;;12.32;7.85;;;18.40;99.90;;;;;;5005558;28;20523;-72
2021/08/26 04:40:42;;;;;;;17.77;7.43;;;18.30;99.90;;;;;;4993777;28;20029;-72
2021/08/26 04:43:08;;;;;;;12.27;6.78;;;18.20;99.90;;;;;;5001788;28;20026;-72
2021/08/26 04:45:34;;;;;;;18.20;8.13;;;18.20;99.90;;;;;;5009281;28;20029;-73
2021/08/26 04:47:59;;;;;;;10.48;6.93;;;18.20;99.90;;;;;;5009476;28;20061;-72
2021/08/26 04:50:25;;;;;;;10.05;7.35;;;18.20;99.90;;;;;;5006575;28;20045;-72
2021/08/26 04:52:51;;;;;;;11.55;7.75;;;18.20;99.90;;;;;;5009427;28;20475;-72
2021/08/26 04:55:17;;;;;;;9.75;6.65;;;18.20;99.90;;;;;;5005762;28;20026;-72
2021/08/26 04:57:42;;;;;;;15.00;7.20;;;18.20;99.90;;;;;;5006605;28;20037;-72
2021/08/26 05:00:08;;;;;;;15.02;7.78;;;18.30;99.90;;;;;;5007442;28;20679;-73
2021/08/26 05:02:34;;;;;;;11.63;7.00;;;18.40;99.90;;;;;;5006948;28;20030;-73
2021/08/26 05:05:00;;;;;;;10.98;7.45;;;18.30;99.90;;;;;;5009487;28;20118;-73
2021/08/26 05:07:26;;;;;;;12.60;6.97;;;18.30;99.90;;;;;;5007212;28;20375;-72
2021/08/26 05:09:52;;;;;;;15.55;8.10;;;18.40;99.90;;;;;;5006913;28;20030;-72
2021/08/26 05:12:17;;;;;;;12.52;7.30;;;18.50;99.90;;;;;;5009186;28;20021;-73
2021/08/26 05:14:43;;;;;;;9.60;8.18;;;18.50;99.90;;;;;;5006184;28;20503;-73
2021/08/26 05:17:09;;;;;;;15.32;7.90;;;18.50;99.90;;;;;;5008838;28;20029;-72
2021/08/26 05:19:35;;;;;;;12.13;7.50;;;18.50;99.90;;;;;;5007800;28;20642;-72
2021/08/26 05:22:02;;;;;;;15.32;7.45;;;18.60;99.90;;;;;;5009531;28;20045;-72
2021/08/26 05:24:29;;;;;;;9.52;7.30;;;18.70;99.90;;;;;;5007794;28;20026;-72
2021/08/26 05:26:54;;;;;;;11.93;8.65;;;18.70;99.90;;;;;;5006871;28;20034;-72
2021/08/26 05:29:20;;;;;;;7.20;6.15;;;18.80;99.90;;;;;;5007812;28;20108;-72
2021/08/26 05:31:46;;;;;;;12.65;6.75;;;18.80;99.90;;;;;;5007573;28;20036;-72
2021/08/26 05:34:12;;;;;;;7.95;6.78;;;18.70;99.90;;;;;;5009297;28;20022;-72
2021/08/26 05:36:38;;;;;;;8.52;7.40;;;18.70;99.90;;;;;;5007836;28;20061;-72
2021/08/26 05:39:04;;;;;;;9.13;7.80;;;18.70;99.90;;;;;;5005010;28;20626;-73
2021/08/26 05:41:30;;;;;;;11.20;8.10;;;18.80;99.90;;;;;;5008588;28;20026;-73
2021/08/26 05:43:55;;;;;;;8.00;6.28;;;18.80;99.90;;;;;;5007243;28;20030;-73
2021/08/26 05:46:21;;;;;;;8.90;6.95;;;18.90;99.90;;;;;;5009305;28;20100;-73
2021/08/26 05:48:47;;;;;;;8.43;6.75;;;19.00;99.90;;;;;;5006199;28;20119;-73
2021/08/26 05:51:13;;;;;;;10.27;7.88;;;19.10;99.90;;;;;;5010019;28;20029;-73
2021/08/26 05:53:38;;;;;;;10.05;7.03;;;19.20;99.90;;;;;;5005981;28;20102;-73
2021/08/26 05:56:04;;;;;;;8.93;6.60;;;19.20;99.90;;;;;;5011011;28;20037;-72
2021/08/26 05:58:30;;;;;;;10.27;7.28;;;19.40;99.90;;;;;;5009182;28;20416;-73
2021/08/26 06:00:56;;;;;;;13.82;6.35;;;19.60;99.90;;;;;;5008500;28;20069;-72
2021/08/26 06:03:21;;;;;;;9.73;6.68;;;19.70;99.90;;;;;;5005532;28;20076;-72
2021/08/26 06:05:47;;;;;;;8.30;6.75;;;19.70;99.90;;;;;;5011837;28;20026;-71
2021/08/26 06:08:13;;;;;;;9.77;7.80;;;19.80;99.90;;;;;;5010587;28;20469;-72
2021/08/26 06:10:39;;;;;;;10.30;7.18;;;19.90;99.90;;;;;;5008740;28;20034;-73
2021/08/26 06:13:05;;;;;;;8.50;6.90;;;20.00;99.90;;;;;;5010603;28;20034;-73
2021/08/26 06:15:31;;;;;;;8.43;7.57;;;20.00;99.90;;;;;;5010165;28;20026;-73
2021/08/26 06:17:57;;;;;;;9.48;7.30;;;20.10;99.90;;;;;;5011174;28;20105;-73
2021/08/26 06:20:23;;;;;;;9.68;7.35;;;20.20;99.90;;;;;;5010645;28;20152;-74
2021/08/26 06:22:49;;;;;;;11.38;7.70;;;20.30;99.90;;;;;;5010819;28;20117;-74
2021/08/26 06:25:15;;;;;;;12.85;9.95;;;20.40;99.90;;;;;;5011560;28;20125;-70
2021/08/26 06:27:42;;;;;;;11.45;8.00;;;20.50;99.90;;;;;;5010466;28;20034;-69
2021/08/26 06:30:10;;;;;;;10.93;7.22;;;20.50;99.90;;;;;;5009954;28;20022;-69
2021/08/26 06:32:37;;;;;;;9.82;8.10;;;20.50;99.90;;;;;;5009133;28;20481;-70
2021/08/26 06:35:03;;;;;;;10.27;7.05;;;20.50;99.90;;;;;;5009492;28;20068;-69
2021/08/26 06:37:30;;;;;;;9.65;7.22;;;20.70;99.90;;;;;;5011032;28;20366;-70
2021/08/26 06:39:57;;;;;;;8.90;7.43;;;20.80;99.90;;;;;;5003679;28;20032;-71
2021/08/26 06:42:23;;;;;;;10.32;7.10;;;20.80;99.90;;;;;;5009106;28;20484;-69
2021/08/26 06:44:49;;;;;;;13.77;7.13;;;21.00;99.90;;;;;;5010298;28;20053;-69
2021/08/26 06:47:16;;;;;;;13.48;8.10;;;21.10;99.90;;;;;;5009744;28;20041;-69
2021/08/26 06:49:42;;;;;;;10.98;6.60;;;21.20;99.90;;;;;;5009804;28;20116;-69
2021/08/26 06:52:08;;;;;;;10.00;6.68;;;21.30;99.90;;;;;;5010675;28;20026;-69
2021/08/26 06:54:34;;;;;;;10.70;6.80;;;21.40;99.90;;;;;;5012042;28;20049;-70
2021/08/26 06:57:00;;;;;;;9.27;7.25;;;21.40;99.90;;;;;;5010847;28;20026;-70
2021/08/26 06:59:26;;;;;;;10.00;7.10;;;21.50;99.90;;;;;;4994949;28;20115;-70
2021/08/26 07:01:51;;;;;;;10.48;8.95;;;21.60;99.90;;;;;;5006715;28;20029;-70
2021/08/26 07:04:17;;;;;;;11.10;7.57;;;21.80;99.90;;;;;;5008953;28;20030;-70
2021/08/26 07:06:43;;;;;;;8.07;7.03;;;22.00;99.90;;;;;;5009023;28;20022;-69
2021/08/26 07:09:09;;;;;;;16.15;7.60;;;22.20;99.90;;;;;;5008759;28;20022;-69
2021/08/26 07:11:35;;;;;;;12.73;7.68;;;22.20;99.90;;;;;;5003762;28;20396;-69
2021/08/26 07:14:01;;;;;;;7.13;6.18;;;22.30;99.90;;;;;;5007964;28;20030;-69
2021/08/26 07:16:26;;;;;;;10.18;6.45;;;22.50;99.90;;;;;;5009126;28;20029;-69
2021/08/26 07:18:52;;;;;;;10.35;5.85;;;22.50;99.90;;;;;;5007681;28;20038;-70
2021/08/26 07:21:18;;;;;;;8.48;7.60;;;22.50;99.90;;;;;;5010298;28;20034;-68
2021/08/26 07:23:43;;;;;;;9.50;8.52;;;22.60;99.90;;;;;;5009349;28;20060;-69
2021/08/26 07:26:09;;;;;;;12.65;7.53;;;22.60;99.90;;;;;;5010052;28;20018;-69
2021/08/26 07:28:35;;;;;;;7.65;6.80;;;22.70;99.90;;;;;;5007476;28;20045;-69
2021/08/26 07:31:01;;;;;;;7.75;6.53;;;22.80;99.90;;;;;;5002781;28;20120;-69
2021/08/26 07:33:26;;;;;;;8.43;6.50;;;22.90;99.90;;;;;;5006632;28;20025;-67
2021/08/26 07:35:54;;;;;;;10.27;8.00;;;23.20;99.90;;;;;;5008536;28;20030;-67
2021/08/26 07:38:20;;;;;;;9.15;6.63;;;23.30;99.90;;;;;;5010574;28;20029;-67
2021/08/26 07:40:46;;;;;;;7.78;6.03;;;23.50;99.90;;;;;;5010256;28;20014;-67
2021/08/26 07:43:14;;;;;;;9.30;6.40;;;23.50;99.90;;;;;;5008016;28;20112;-66
2021/08/26 07:45:40;;;;;;;8.52;6.18;;;23.50;99.90;;;;;;5008310;28;20836;-66
2021/08/26 07:48:06;;;;;;;9.05;6.85;;;23.60;99.90;;;;;;5008444;28;20038;-66
2021/08/26 07:50:31;;;;;;;13.48;6.70;;;23.70;99.90;;;;;;5007892;28;20038;-65
2021/08/26 07:52:57;;;;;;;9.98;5.60;;;23.80;99.90;;;;;;5009335;28;20030;-65
2021/08/26 07:55:23;;;;;;;8.43;6.32;;;23.80;99.90;;;;;;5008260;28;20048;-65
2021/08/26 07:57:49;;;;;;;10.00;6.70;;;24.00;99.90;;;;;;5009031;28;20064;-65
2021/08/26 08:00:15;;;;;;;14.05;12.60;;;24.30;99.90;;;;;;5008298;28;20337;-66
2021/08/26 08:02:40;;;;;;;8.13;5.80;;;24.40;99.90;;;;;;5010263;28;20037;-66
2021/08/26 08:05:07;;;;;;;11.30;6.10;;;24.30;99.90;;;;;;5007642;28;20022;-67
2021/08/26 08:07:32;;;;;;;8.43;6.90;;;24.30;99.90;;;;;;5010127;28;20018;-66
2021/08/26 08:09:58;;;;;;;8.48;6.25;;;24.30;99.90;;;;;;5006009;28;20503;-66
2021/08/26 08:12:24;;;;;;;7.95;6.78;;;24.20;99.90;;;;;;5003845;28;20038;-66
2021/08/26 08:14:50;;;;;;;8.20;7.00;;;24.10;99.90;;;;;;5005199;28;20431;-66
2021/08/26 08:17:16;;;;;;;9.75;7.00;;;23.90;99.90;;;;;;5007773;28;20406;-68
2021/08/26 08:19:42;;;;;;;9.02;7.13;;;24.00;99.90;;;;;;5008609;28;20064;-65
2021/08/26 08:22:08;;;;;;;8.65;6.80;;;23.90;99.90;;;;;;5008990;28;20025;-68
2021/08/26 08:24:33;;;;;;;10.15;7.22;;;23.90;99.90;;;;;;5009418;28;20018;-65
2021/08/26 08:26:59;;;;;;;13.57;8.07;;;24.10;99.90;;;;;;5007541;28;20511;-66
2021/08/26 08:29:25;;;;;;;8.55;6.95;;;24.10;99.90;;;;;;5005684;28;20484;-67
2021/08/26 08:31:51;;;;;;;12.57;7.00;;;24.00;99.90;;;;;;5010054;28;20034;-67
2021/08/26 08:34:16;;;;;;;9.00;5.85;;;24.00;99.90;;;;;;5008467;28;20034;-67
2021/08/26 08:36:42;;;;;;;8.98;6.10;;;24.00;99.90;;;;;;5009981;28;20022;-66
2021/08/26 08:39:08;;;;;;;7.25;5.55;;;24.00;99.90;;;;;;5007734;28;20037;-66
2021/08/26 08:41:34;;;;;;;9.23;6.72;;;24.10;99.90;;;;;;4993108;28;20665;-66
2021/08/26 08:44:00;;;;;;;11.75;6.80;;;24.20;99.90;;;;;;5003917;28;20030;-65
2021/08/26 08:46:27;;;;;;;7.28;6.00;;;24.20;99.90;;;;;;5007535;28;20358;-67
2021/08/26 08:48:55;;;;;;;9.50;7.10;;;24.20;99.90;;;;;;5010983;28;20026;-66
2021/08/26 08:51:23;;;;;;;9.55;6.65;;;24.30;99.90;;;;;;5008348;28;20403;-67
2021/08/26 08:53:49;;;;;;;9.07;6.80;;;24.30;99.90;;;;;;5009690;28;20072;-66
2021/08/26 08:56:16;;;;;;;10.82;6.85;;;24.20;99.90;;;;;;5007948;28;20129;-66
2021/08/26 08:58:42;;;;;;;10.65;6.20;;;24.20;99.90;;;;;;5007339;28;20069;-65
2021/08/26 09:01:12;;;;;;;7.97;6.45;;;24.10;99.90;;;;;;5008960;28;20061;-67
2021/08/26 09:03:38;;;;;;;8.05;6.75;;;24.20;99.90;;;;;;5007680;28;20038;-66
2021/08/26 09:06:05;;;;;;;8.10;7.07;;;24.40;99.90;;;;;;5008856;28;20037;-66
2021/08/26 09:08:32;;;;;;;12.43;6.53;;;24.40;99.90;;;;;;5008207;28;20038;-66
2021/08/26 09:11:20;;;;;;;10.90;5.97;;;24.50;99.90;;;;;;5008621;28;20034;-65
2021/08/26 09:13:46;;;;;;;11.00;7.13;;;24.70;99.90;;;;;;5002182;28;20064;-66
2021/08/26 09:16:13;;;;;;;9.82;6.22;;;25.10;99.90;;;;;;5008166;28;20113;-66
2021/08/26 09:18:39;;;;;;;9.98;7.18;;;25.40;99.90;;;;;;5008683;28;20139;-65
2021/08/26 09:21:07;;;;;;;6.90;6.20;;;25.50;99.90;;;;;;5007228;28;20030;-67
2021/08/26 09:23:55;;;;;;;8.38;7.10;;;25.30;99.90;;;;;;5007283;28;20041;-66
2021/08/26 09:26:23;;;;;;;10.13;7.10;;;25.20;99.90;;;;;;5009524;28;20022;-66
2021/08/26 09:28:50;;;;;;;7.93;7.22;;;25.20;99.90;;;;;;5012064;28;20117;-65
2021/08/26 09:31:17;;;;;;;8.82;7.00;;;25.10;99.90;;;;;;5012451;28;20359;-66
2021/08/26 09:33:53;;;;;;;12.68;6.38;;;24.90;99.90;;;;;;5012273;28;20034;-65
2021/08/26 09:36:22;;;;;;;7.45;6.28;;;24.70;99.90;;;;;;5009936;28;20037;-66
2021/08/26 09:38:53;;;;;;;8.25;7.00;;;24.60;99.90;;;;;;5011642;28;20101;-66
2021/08/26 09:41:41;;;;;;;9.77;7.05;;;24.60;99.90;;;;;;5006578;28;20050;-65
2021/08/26 09:44:12;;;;;;;5.88;5.38;;;24.70;99.90;;;;;;5010756;28;20026;-67
2021/08/26 09:46:38;;;;;;;;;;;24.70;99.90;;;;;;5008055;28;20046;-66
2021/08/26 09:49:12;;;;;;;7.80;5.70;;;24.80;99.90;;;;;;5010451;28;19910;-65
2021/08/26 09:51:39;;;;;;;7.65;5.97;;;24.90;99.90;;;;;;5007687;28;20057;-67
2021/08/26 09:54:31;;;;;;;6.25;5.50;;;25.10;99.90;;;;;;5009681;28;20437;-66
2021/08/26 09:56:58;;;;;;;8.00;5.97;;;25.40;99.90;;;;;;5009985;28;20038;-66
2021/08/26 09:59:56;;;;;;;10.70;6.20;;;25.60;99.90;;;;;;5012123;28;20373;-68
2021/08/26 10:02:23;;;;;;;7.22;5.47;;;25.90;99.90;;;;;;5011053;28;20049;-65
2021/08/26 10:04:50;;;;;;;6.10;5.50;;;26.10;99.90;;;;;;5012426;28;20037;-66
2021/08/26 10:07:17;;;;;;;6.95;5.60;;;26.20;99.90;;;;;;5010628;28;20045;-65
2021/08/26 10:09:44;;;;;;;7.25;6.10;;;26.00;99.90;;;;;;5010590;28;20116;-66
2021/08/26 10:12:12;;;;;;;6.57;5.82;;;25.90;99.90;;;;;;5010727;28;20030;-66
2021/08/26 10:14:40;;;;;;;8.65;4.97;;;25.90;99.90;;;;;;5008425;28;20685;-66
2021/08/26 10:17:07;;;;;;;7.10;5.18;;;25.80;99.90;;;;;;5010466;28;20120;-66
2021/08/26 10:19:33;;;;;;;8.55;6.05;;;26.00;99.90;;;;;;5010606;28;20033;-66
2021/08/26 10:21:59;;;;;;;5.78;5.28;;;26.00;99.90;;;;;;5012119;28;20503;-66
2021/08/26 10:24:25;;;;;;;7.28;5.97;;;25.90;99.90;;;;;;5010629;28;20026;-67
2021/08/26 10:27:04;;;;;;;6.00;5.43;;;25.80;99.90;;;;;;5012167;28;20022;-66
2021/08/26 10:29:31;;;;;;;7.50;6.00;;;25.80;99.90;;;;;;5009809;28;20044;-67
2021/08/26 10:31:59;;;;;;;6.55;5.38;;;25.80;99.90;;;;;;5009900;28;20041;-67
2021/08/26 10:34:27;;;;;;;7.45;5.32;;;25.60;99.90;;;;;;5010726;28;20029;-68
2021/08/26 10:36:55;;;;;;;9.18;5.57;;;25.50;99.90;;;;;;5010339;28;20026;-66
2021/08/26 10:39:30;;;;;;;5.55;5.05;;;25.60;99.90;;;;;;5009473;28;20026;-66
2021/08/26 10:42:16;;;;;;;5.38;4.30;;;25.80;99.90;;;;;;5010669;28;20416;-66
2021/08/26 10:44:59;;;;;;;7.50;5.40;;;25.80;99.90;;;;;;5005462;28;20144;-66
2021/08/26 10:47:48;;;;;;;7.60;5.20;;;25.80;99.90;;;;;;5009846;28;20033;-67
2021/08/26 10:50:20;;;;;;;7.00;5.43;;;25.80;99.90;;;;;;5011393;28;20021;-66
2021/08/26 10:53:09;;;;;;;13.43;5.75;;;25.80;99.90;;;;;;5010524;28;20045;-67
2021/08/26 10:55:43;;;;;;;8.23;5.00;;;26.00;99.90;;;;;;5012230;28;20026;-67
2021/08/26 10:58:24;;;;;;;5.95;4.93;;;26.00;99.90;;;;;;5009391;28;20036;-67
2021/08/26 11:01:00;;;;;;;6.77;4.47;;;26.00;99.90;;;;;;5008911;28;20025;-66
2021/08/26 11:03:32;;;;;;;6.88;4.85;;;26.20;99.90;;;;;;5011324;28;20029;-67
2021/08/26 11:06:22;;;;;;;5.88;5.28;;;26.40;99.90;;;;;;5011943;28;20032;-66
2021/08/26 11:09:18;;;;;;;7.55;4.97;;;26.20;99.90;;;;;;5007242;28;20248;-66
2021/08/26 11:11:45;;;;;;;5.43;4.88;;;26.20;99.90;;;;;;5008937;28;20034;-67
2021/08/26 11:14:20;;;;;;;9.43;5.18;;;26.30;99.90;;;;;;5010309;28;20383;-67
2021/08/26 11:16:52;;;;;;;5.72;5.10;;;26.40;99.90;;;;;;5008819;28;20030;-66
2021/08/26 11:19:18;;;;;;;7.35;5.10;;;26.50;99.90;;;;;;5009499;28;20033;-67
2021/08/26 11:21:44;;;;;;;8.18;5.40;;;26.50;99.90;;;;;;5011056;28;20072;-67
2021/08/26 11:24:19;;;;;;;7.93;5.38;;;26.50;99.90;;;;;;5009860;28;20026;-67
2021/08/26 11:27:17;;;;;;;6.68;5.45;;;26.50;99.90;;;;;;5011807;28;20026;-66
2021/08/26 11:29:42;;;;;;;6.63;4.85;;;26.50;99.90;;;;;;5005933;28;20061;-66
2021/08/26 11:32:11;;;;;;;5.72;4.30;;;26.50;99.90;;;;;;5011963;28;20451;-66
2021/08/26 11:34:45;;;;;;;7.30;4.82;;;26.50;99.90;;;;;;5005890;28;20077;-66
2021/08/26 11:37:18;;;;;;;5.70;5.00;;;26.70;99.90;;;;;;5005716;28;20038;-67
2021/08/26 11:39:44;;;;;;;5.57;4.72;;;26.80;99.90;;;;;;5009421;28;20080;-67
2021/08/26 11:42:22;;;;;;;7.45;4.85;;;26.60;99.90;;;;;;5009017;28;20034;-67
2021/08/26 11:45:22;;;;;;;4.82;4.10;;;26.50;99.90;;;;;;5008310;28;20369;-67
2021/08/26 11:47:54;;;;;;;11.48;5.30;;;26.50;99.90;;;;;;5008556;28;20025;-66
2021/08/26 11:50:24;;;;;;;;;;;26.20;99.90;;;;;;5008091;28;20098;-66
2021/08/26 11:52:55;;;;;;;6.20;4.50;;;26.10;99.90;;;;;;5008895;28;19914;-66
2021/08/26 11:55:26;;;;;;;4.53;3.93;;;26.10;99.90;;;;;;5008394;28;20017;-66
2021/08/26 11:57:56;;;;;;;;;;;26.20;99.90;;;;;;5010351;28;20068;-66
2021/08/26 12:00:22;;;;;;;5.55;4.43;;;26.00;99.90;;;;;;5008884;28;19989;-65
2021/08/26 12:02:58;;;;;;;8.00;5.15;;;26.00;99.90;;;;;;5010115;28;20022;-66
2021/08/26 12:05:26;;;;;;;6.68;5.55;;;25.80;99.90;;;;;;5007678;28;20033;-66
2021/08/26 12:07:53;;;;;;;7.28;5.05;;;25.60;99.90;;;;;;5010280;28;20103;-66
2021/08/26 12:10:25;;;;;;;5.93;5.32;;;25.70;99.90;;;;;;5004791;28;20037;-67
2021/08/26 12:12:56;;;;;;;;;;;25.80;99.90;;;;;;5010212;28;20049;-68
2021/08/26 12:15:27;;;;;;;4.47;4.05;;;25.80;99.90;;;;;;5007215;28;19917;-66
2021/08/26 12:18:00;;;;;;;5.53;4.28;;;25.90;99.90;;;;;;5009732;28;20392;-66
2021/08/26 12:20:28;;;;;;;4.75;4.32;;;25.80;99.90;;;;;;5008261;28;20029;-66
2021/08/26 12:22:54;;;;;;;6.35;4.45;;;25.70;99.90;;;;;;5008174;28;20034;-65
2021/08/26 12:25:23;;;;;;;8.40;4.63;;;25.80;99.90;;;;;;5005927;28;20018;-66
2021/08/26 12:27:52;;;;;;;7.20;4.20;;;25.70;99.90;;;;;;5009900;28;20030;-67
2021/08/26 12:30:32;;;;;;;5.32;4.45;;;25.50;99.90;;;;;;5008633;28;20076;-66
2021/08/26 12:33:08;;;;;;;5.25;4.75;;;25.60;99.90;;;;;;5008658;28;20136;-67
2021/08/26 12:35:49;;;;;;;6.13;4.55;;;25.80;99.90;;;;;;5007800;28;20022;-67
2021/08/26 12:38:28;;;;;;;5.30;4.30;;;25.80;99.90;;;;;;4989935;28;20034;-65
2021/08/26 12:40:57;;;;;;;5.88;4.68;;;25.90;99.90;;;;;;5004902;28;20095;-66
2021/08/26 12:43:25;;;;;;;9.93;4.22;;;25.80;99.90;;;;;;5008823;28;20026;-66
2021/08/26 12:46:07;;;;;;;5.03;4.53;;;25.80;99.90;;;;;;5008513;28;20492;-66
2021/08/26 12:48:38;;;;;;;5.97;5.28;;;25.80;99.90;;;;;;5009258;28;20053;-66
2021/08/26 12:51:07;;;;;;;7.03;5.82;;;25.70;99.90;;;;;;5009565;28;20104;-66
2021/08/26 12:53:34;;;;;;;5.50;4.97;;;25.80;99.90;;;;;;5008379;28;20026;-67
2021/08/26 12:56:02;;;;;;;7.95;4.65;;;25.80;99.90;;;;;;5010151;28;20025;-67